Time;durP1;ratioP1;P1;durP2;ratioP2;P2;SDS_P1;SDS_P2;PMS_P1;PMS_P2;Temp;Humidity;BMP_temperature;BMP_pressure;BME280_temperature;BME280_humidity;BME280_pressure;Samples;Min_cycle;Max_cycle;Signal;HPM_P1;HPM_P2
2021/12/30 05:03:25;;;;;;;408.73;47.60;;;;;;;0.13;100.00;99949.03;4495666;31;166130;-85
2021/12/30 05:05:53;;;;;;;113.78;28.00;;;;;;;0.50;100.00;99959.53;4478986;32;34637;-85
2021/12/30 05:08:39;;;;;;;109.87;27.40;;;;;;;1.39;100.00;99961.81;4474173;32;34554;-85
2021/12/30 05:11:25;;;;;;;253.37;36.90;;;;;;;2.03;100.00;99970.47;4463431;32;35969;-85
2021/12/30 05:14:12;;;;;;;370.25;44.70;;;;;;;2.14;100.00;99988.50;4478171;32;34865;-83
2021/12/30 05:17:03;;;;;;;128.35;26.98;;;;;;;1.67;100.00;100001.47;4465711;32;34203;-83
2021/12/30 05:19:49;;;;;;;162.20;27.13;;;;;;;1.72;100.00;100015.91;4477118;32;35600;-81
2021/12/30 05:22:35;;;;;;;245.65;35.85;;;;;;;2.02;100.00;100003.97;4478925;31;34559;-82
2021/12/30 05:25:22;;;;;;;84.53;23.05;;;;;;;2.44;100.00;100001.62;4455870;32;34985;-82
2021/12/30 05:28:08;;;;;;;87.43;23.00;;;;;;;2.98;100.00;100011.03;4465554;32;34175;-82
2021/12/30 05:30:55;;;;;;;122.32;25.60;;;;;;;3.47;100.00;100009.16;4469733;32;35327;-83
2021/12/30 05:33:41;;;;;;;264.55;33.20;;;;;;;3.09;100.00;100005.47;4470639;32;34502;-83
2021/12/30 05:36:28;;;;;;;97.50;24.30;;;;;;;2.33;100.00;100015.25;4451222;32;34742;-83
2021/12/30 05:39:14;;;;;;;265.90;35.65;;;;;;;3.11;100.00;100010.66;4483187;32;34855;-82
2021/12/30 05:42:01;;;;;;;84.13;22.35;;;;;;;2.01;100.00;100019.34;4481117;32;34685;-83
2021/12/30 05:44:51;;;;;;;71.60;22.20;;;;;;;3.25;100.00;100022.72;4471273;32;35555;-83
2021/12/30 05:47:37;;;;;;;115.62;24.30;;;;;;;3.54;100.00;100036.84;4472496;32;34117;-83
2021/12/30 05:50:26;;;;;;;100.32;20.02;;;;;;;3.75;100.00;100021.62;4456044;32;35091;-83
2021/12/30 05:53:12;;;;;;;84.37;21.10;;;;;;;4.04;100.00;100030.31;4483200;32;34278;-83
2021/12/30 05:55:59;;;;;;;101.90;22.13;;;;;;;4.09;100.00;100024.09;4475981;32;35938;-83
2021/12/30 05:58:45;;;;;;;58.58;17.62;;;;;;;4.18;98.73;100019.00;4486479;31;32749;-83
2021/12/30 06:01:31;;;;;;;62.97;18.87;;;;;;;4.14;97.64;100023.31;4485077;32;35304;-82
2021/12/30 06:04:21;;;;;;;49.08;16.40;;;;;;;3.91;96.41;100025.28;4468366;32;34150;-82
2021/12/30 06:07:10;;;;;;;94.07;18.48;;;;;;;4.00;96.65;100018.31;4464400;32;34505;-82
2021/12/30 06:09:57;;;;;;;77.05;19.17;;;;;;;3.86;98.25;100033.37;4485748;32;34100;-83
2021/12/30 06:12:43;;;;;;;59.17;17.60;;;;;;;3.51;100.00;100048.22;4482821;32;33971;-83
2021/12/30 06:15:30;;;;;;;58.92;17.20;;;;;;;4.03;97.66;100058.47;4461214;32;34619;-82
2021/12/30 06:18:16;;;;;;;58.70;16.60;;;;;;;3.99;98.28;100064.69;4471256;32;33978;-82
2021/12/30 06:21:03;;;;;;;58.30;16.12;;;;;;;4.18;95.22;100054.25;4467997;32;34173;-82
2021/12/30 06:23:49;;;;;;;51.17;15.90;;;;;;;4.21;93.78;100061.88;4457362;32;35712;-82
2021/12/30 06:26:38;;;;;;;47.85;15.80;;;;;;;4.21;93.75;100067.31;4463351;32;35197;-83
2021/12/30 06:29:24;;;;;;;54.25;15.18;;;;;;;4.20;94.35;100065.69;4449809;32;34847;-83
2021/12/30 06:32:11;;;;;;;138.48;22.08;;;;;;;4.28;92.61;100078.78;4471224;32;35589;-80
2021/12/30 06:34:59;;;;;;;68.95;17.33;;;;;;;3.89;94.01;100083.56;4460374;32;34604;-80
2021/12/30 06:37:48;;;;;;;49.65;15.48;;;;;;;3.90;96.63;100088.75;4472635;32;35492;-80
2021/12/30 06:40:35;;;;;;;63.67;15.85;;;;;;;4.20;93.16;100088.19;4473373;32;34960;-80
2021/12/30 06:43:21;;;;;;;45.60;15.23;;;;;;;3.93;93.62;100093.66;4462003;32;35364;-79
2021/12/30 06:46:10;;;;;;;54.47;15.13;;;;;;;3.93;93.18;100099.06;4460567;32;34289;-80
2021/12/30 06:48:56;;;;;;;53.45;15.90;;;;;;;3.88;93.17;100109.84;4448681;32;34040;-81
2021/12/30 06:51:45;;;;;;;40.83;14.68;;;;;;;3.68;94.58;100115.06;4449202;32;34704;-80
2021/12/30 06:54:32;;;;;;;54.88;15.05;;;;;;;3.84;93.31;100119.56;4460415;32;34006;-80
2021/12/30 06:57:18;;;;;;;65.35;17.52;;;;;;;3.65;93.14;100138.06;4449417;32;34784;-80
2021/12/30 07:00:07;;;;;;;67.93;16.95;;;;;;;3.73;93.42;100159.31;4471631;32;35222;-80
2021/12/30 07:02:53;;;;;;;54.75;16.05;;;;;;;3.45;94.02;100167.62;4458253;32;35814;-80
2021/12/30 07:05:40;;;;;;;71.90;16.87;;;;;;;3.72;93.72;100173.09;4459337;32;35003;-80
2021/12/30 07:08:26;;;;;;;69.30;17.20;;;;;;;3.67;93.62;100163.03;4459137;32;35129;-80
2021/12/30 07:11:13;;;;;;;69.62;18.70;;;;;;;3.73;92.96;100164.72;4459880;32;37097;-80
2021/12/30 07:21:06;;;;;;;56.20;16.65;;;;;;;2.92;100.00;100156.28;4486550;31;162495;-82
2021/12/30 07:23:52;;;;;;;45.20;15.23;;;;;;;2.92;100.00;100156.28;4473362;31;34550;-83
2021/12/30 07:26:41;;;;;;;77.78;15.52;;;;;;;3.00;99.72;100163.19;4490574;31;35740;-83
2021/12/30 07:29:28;;;;;;;58.47;16.02;;;;;;;3.33;97.44;100160.41;4478848;31;34606;-83
2021/12/30 07:32:16;;;;;;;45.55;14.93;;;;;;;3.54;95.74;100164.22;4482919;31;33998;-83
2021/12/30 07:35:03;;;;;;;138.80;21.35;;;;;;;3.58;95.29;100178.06;4490573;31;34353;-80
2021/12/30 07:37:50;;;;;;;97.15;18.48;;;;;;;2.56;98.54;100193.63;4491355;31;34596;-80
2021/12/30 07:40:36;;;;;;;58.80;15.88;;;;;;;2.86;99.25;100192.47;4492220;31;34561;-81
2021/12/30 07:43:23;;;;;;;50.08;14.50;;;;;;;3.40;96.37;100189.22;4480156;31;35228;-80
2021/12/30 07:46:12;;;;;;;44.83;15.77;;;;;;;3.57;94.77;100207.06;4479491;31;34179;-81
2021/12/30 07:48:58;;;;;;;53.67;18.17;;;;;;;3.74;94.25;100201.59;4478548;31;34393;-81
2021/12/30 07:51:45;;;;;;;48.80;14.10;;;;;;;3.66;94.62;100196.59;4474314;31;36012;-81
2021/12/30 07:54:31;;;;;;;42.90;14.68;;;;;;;3.65;94.14;100194.97;4478958;31;33951;-81
2021/12/30 07:57:23;;;;;;;56.03;14.18;;;;;;;3.94;91.94;100197.47;4478608;31;33808;-79
2021/12/30 08:00:12;;;;;;;43.65;15.57;;;;;;;3.63;92.47;100202.53;4474293;31;34422;-80
2021/12/30 08:02:59;;;;;;;45.38;15.77;;;;;;;3.74;92.35;100196.16;4476498;31;34454;-80
2021/12/30 08:05:49;;;;;;;66.10;15.23;;;;;;;3.83;91.95;100197.34;4479015;31;34117;-80
2021/12/30 14:34:52;;;;;;;85.20;28.50;;;;;;;2.22;100.00;100306.28;4500602;31;142738;-83
2021/12/30 14:37:44;;;;;;;68.50;26.87;;;;;;;2.87;100.00;100300.47;4466500;32;34514;-84
2021/12/30 14:40:30;;;;;;;72.87;26.65;;;;;;;3.43;100.00;100299.78;4474444;32;33614;-82
2021/12/30 14:43:17;;;;;;;69.10;25.62;;;;;;;4.17;100.00;100294.03;4478876;31;35625;-83
2021/12/30 14:46:13;;;;;;;73.32;26.17;;;;;;;4.57;100.00;100298.28;4468425;32;34351;-83
2021/12/30 14:49:08;;;;;;;68.32;25.35;;;;;;;4.93;100.00;100294.84;4477016;32;34280;-83
2021/12/30 14:52:36;;;;;;;60.10;23.17;;;;;;;5.20;100.00;100296.69;4478500;32;34155;-83
2021/12/30 14:55:34;;;;;;;63.90;24.73;;;;;;;5.82;100.00;100293.34;4480825;32;34530;-83
2021/12/30 14:58:20;;;;;;;58.87;24.60;;;;;;;5.91;100.00;100295.56;4463623;32;35828;-83
2021/12/30 15:01:11;;;;;;;60.90;24.37;;;;;;;5.67;100.00;100304.13;4475288;32;34269;-83
2021/12/30 15:03:58;;;;;;;51.15;22.20;;;;;;;6.00;100.00;100304.87;4483152;31;34353;-80
2021/12/30 15:06:44;;;;;;;87.93;25.23;;;;;;;6.28;98.11;100296.28;4473352;32;34495;-81
2021/12/30 15:09:31;;;;;;;68.00;25.83;;;;;;;5.54;97.94;100293.69;4475962;32;34929;-81
2021/12/30 15:12:44;;;;;;;64.65;25.35;;;;;;;5.06;99.42;100303.66;4483972;32;34019;-81
2021/12/30 15:15:31;;;;;;;66.50;24.52;;;;;;;4.85;100.00;100305.34;4475215;32;35417;-81
2021/12/30 15:18:18;;;;;;;50.30;20.27;;;;;;;5.54;99.75;100301.84;4473277;32;34857;-81
2021/12/30 15:21:04;;;;;;;55.38;22.98;;;;;;;6.11;97.14;100303.03;4482975;32;35317;-81
2021/12/30 15:23:50;;;;;;;64.10;21.30;;;;;;;6.03;96.44;100312.50;4474902;32;33191;-81
2021/12/30 15:26:36;;;;;;;75.28;24.67;;;;;;;5.77;97.26;100322.41;4467002;32;34187;-81
2021/12/30 15:29:23;;;;;;;72.75;23.73;;;;;;;5.11;97.82;100320.00;4472361;32;34827;-81
2021/12/30 15:32:10;;;;;;;67.50;23.15;;;;;;;4.51;100.00;100321.81;4472989;32;33877;-81
2021/12/30 15:34:57;;;;;;;77.68;26.05;;;;;;;5.10;100.00;100323.78;4458678;32;33773;-81
2021/12/30 15:37:43;;;;;;;93.93;26.65;;;;;;;4.16;100.00;100324.94;4481234;32;34193;-81
2021/12/30 15:40:32;;;;;;;74.65;23.25;;;;;;;3.73;100.00;100334.63;4474799;32;34965;-83
2021/12/30 15:43:19;;;;;;;112.57;27.95;;;;;;;5.06;100.00;100328.91;4487895;31;34581;-81
2021/12/30 15:46:06;;;;;;;79.18;26.67;;;;;;;4.95;99.92;100314.44;4470953;32;34895;-81
2021/12/30 15:48:52;;;;;;;80.35;25.50;;;;;;;5.62;97.81;100313.06;4477110;32;34250;-81
2021/12/30 15:51:40;;;;;;;69.60;23.87;;;;;;;6.21;93.39;100322.94;4454490;32;35880;-81
2021/12/30 15:54:26;;;;;;;106.78;27.50;;;;;;;6.31;92.40;100335.78;4464568;32;33348;-81
2021/12/30 15:57:14;;;;;;;90.75;26.23;;;;;;;5.33;94.77;100318.00;4462741;32;35118;-81
2021/12/30 16:00:01;;;;;;;94.40;28.20;;;;;;;4.72;100.00;100328.28;4470696;32;34777;-81
2021/12/30 16:02:56;;;;;;;74.40;26.62;;;;;;;4.46;100.00;100336.16;4455670;32;34617;-81
2021/12/30 16:05:43;;;;;;;203.48;37.53;;;;;;;5.44;98.35;100318.09;4464801;32;34494;-79
2021/12/30 16:08:29;;;;;;;109.40;31.15;;;;;;;4.70;99.45;100325.03;4466902;32;34345;-81
2021/12/30 16:11:19;;;;;;;155.02;37.38;;;;;;;4.50;100.00;100331.87;4467302;32;34580;-80
2021/12/30 16:14:06;;;;;;;140.88;34.85;;;;;;;3.99;100.00;100336.66;4462692;32;35658;-80
2021/12/30 16:16:52;;;;;;;161.88;34.28;;;;;;;4.01;100.00;100337.22;4462355;32;35070;-80
2021/12/30 16:19:38;;;;;;;85.95;28.35;;;;;;;3.70;100.00;100343.25;4466500;32;35129;-79
2021/12/30 16:22:25;;;;;;;115.53;29.80;;;;;;;4.64;100.00;100336.88;4467399;32;35564;-80
2021/12/30 16:25:14;;;;;;;119.80;29.83;;;;;;;4.90;99.48;100349.69;4467037;32;34973;-81
2021/12/30 16:28:01;;;;;;;178.25;32.47;;;;;;;4.27;100.00;100353.84;4462162;32;34324;-80
2021/12/30 16:30:47;;;;;;;133.10;32.00;;;;;;;4.25;100.00;100356.78;4461748;32;34775;-80
2021/12/30 16:33:36;;;;;;;79.50;26.00;;;;;;;3.98;100.00;100367.53;4452915;32;35613;-80
2021/12/30 16:36:24;;;;;;;163.68;34.55;;;;;;;5.01;100.00;100372.34;4463528;32;34804;-81
2021/12/30 16:39:13;;;;;;;100.72;29.40;;;;;;;5.22;97.58;100369.81;4466635;32;34320;-80
2021/12/30 16:42:00;;;;;;;82.90;27.65;;;;;;;5.48;97.20;100368.94;4464693;32;35110;-80
2021/12/30 16:44:47;;;;;;;98.20;26.92;;;;;;;5.89;95.18;100363.84;4463758;32;35412;-80
2021/12/30 16:47:33;;;;;;;73.43;24.27;;;;;;;6.00;94.10;100360.09;4462826;32;35912;-80
2021/12/30 16:50:19;;;;;;;65.37;23.98;;;;;;;6.15;93.01;100364.84;4444043;32;33344;-80
2021/12/30 16:53:06;;;;;;;259.20;32.38;;;;;;;6.44;90.70;100369.88;4461895;32;35165;-81
2021/12/30 16:55:53;;;;;;;68.97;23.60;;;;;;;5.81;93.02;100380.63;4465370;32;34237;-80
2021/12/30 16:58:39;;;;;;;88.12;26.65;;;;;;;6.40;91.33;100375.00;4463079;32;35034;-79
2021/12/30 17:01:26;;;;;;;67.25;24.70;;;;;;;6.55;88.94;100365.28;4466035;32;35366;-81
2021/12/30 17:04:12;;;;;;;72.15;26.48;;;;;;;6.36;88.65;100346.69;4472708;32;33786;-80
2021/12/30 17:07:05;;;;;;;86.25;29.40;;;;;;;6.26;88.86;100330.31;4466068;32;34840;-80
2021/12/30 17:09:56;;;;;;;72.28;25.92;;;;;;;5.41;92.90;100342.00;4464822;32;36733;-80
2021/12/30 17:12:44;;;;;;;76.05;27.02;;;;;;;5.84;92.95;100361.88;4439864;32;35030;-80
2021/12/30 17:15:30;;;;;;;68.97;27.35;;;;;;;6.17;91.07;100361.81;4465901;32;34778;-81
2021/12/30 17:18:17;;;;;;;72.55;27.58;;;;;;;6.31;89.67;100363.81;4471456;32;35606;-81
2021/12/30 17:21:04;;;;;;;77.95;29.73;;;;;;;6.31;90.13;100365.72;4463753;32;34690;-82
2021/12/30 17:23:51;;;;;;;76.07;32.17;;;;;;;6.34;89.46;100359.72;4464713;31;34108;-81
2021/12/30 17:26:39;;;;;;;72.55;30.40;;;;;;;6.43;89.55;100354.59;4464254;32;34846;-79
2021/12/30 17:29:26;;;;;;;82.50;34.25;;;;;;;6.55;89.16;100351.69;4465153;32;34245;-81
2021/12/30 17:32:14;;;;;;;71.75;29.58;;;;;;;6.59;87.97;100361.75;4455168;32;35604;-81
2021/12/30 17:35:02;;;;;;;89.60;34.33;;;;;;;6.64;87.63;100361.78;4472807;32;36161;-79
2021/12/30 17:37:48;;;;;;;79.20;31.75;;;;;;;6.23;88.95;100367.06;4465489;32;34190;-81
2021/12/30 17:40:35;;;;;;;74.43;29.42;;;;;;;6.13;89.09;100371.63;4470368;32;34752;-81
2021/12/30 17:43:22;;;;;;;81.65;32.17;;;;;;;6.33;89.31;100373.63;4469097;32;35650;-81
2021/12/30 17:46:09;;;;;;;67.80;32.00;;;;;;;6.16;88.99;100371.09;4453011;32;34550;-81
2021/12/30 17:48:56;;;;;;;83.80;34.30;;;;;;;6.03;90.17;100380.50;4442118;32;34239;-81
2021/12/30 17:51:42;;;;;;;73.37;31.65;;;;;;;5.72;91.57;100383.03;4472534;32;34302;-81
2021/12/30 17:54:31;;;;;;;66.00;29.05;;;;;;;6.10;90.82;100386.56;4471149;32;35918;-81
2021/12/30 17:57:18;;;;;;;75.12;30.37;;;;;;;6.43;89.60;100385.38;4453930;32;34123;-81
2021/12/30 18:00:06;;;;;;;61.67;26.62;;;;;;;6.42;89.62;100388.34;4454603;32;34692;-81
2021/12/30 18:02:56;;;;;;;52.60;23.93;;;;;;;6.53;89.29;100387.31;4465072;32;35541;-81
2021/12/30 18:05:43;;;;;;;61.83;26.40;;;;;;;6.64;89.01;100386.28;4440051;32;34880;-82
2021/12/30 18:08:30;;;;;;;72.15;28.98;;;;;;;6.33;89.80;100388.03;4463905;32;34491;-81
2021/12/30 18:11:17;;;;;;;55.88;25.30;;;;;;;6.02;91.19;100384.34;4461649;32;33940;-81
2021/12/30 18:14:04;;;;;;;60.95;26.27;;;;;;;6.69;88.92;100382.78;4454223;32;35165;-81
2021/12/30 18:16:51;;;;;;;67.78;27.23;;;;;;;6.60;89.10;100384.34;4461619;32;34930;-80
2021/12/30 18:19:38;;;;;;;66.30;30.02;;;;;;;6.18;89.66;100379.81;4464124;32;34152;-82
2021/12/30 18:22:27;;;;;;;111.55;36.60;;;;;;;5.04;96.70;100379.13;4466248;32;34365;-81
2021/12/30 18:25:13;;;;;;;105.53;43.63;;;;;;;4.93;97.42;100373.59;4465370;32;34525;-81
2021/12/30 18:28:00;;;;;;;101.00;40.63;;;;;;;5.59;95.46;100375.28;4464019;32;35954;-81
2021/12/30 18:30:49;;;;;;;158.98;48.40;;;;;;;5.54;94.42;100367.09;4460819;32;34105;-81
2021/12/30 18:33:36;;;;;;;223.40;54.47;;;;;;;4.69;99.71;100372.25;4474422;32;34230;-81
2021/12/30 18:36:23;;;;;;;110.68;42.80;;;;;;;4.27;100.00;100380.97;4470495;32;35275;-81
2021/12/30 18:39:09;;;;;;;101.70;40.25;;;;;;;4.90;99.27;100379.56;4470417;32;34953;-81
2021/12/30 18:41:56;;;;;;;125.78;41.10;;;;;;;5.05;98.81;100376.16;4460492;32;34212;-81
2021/12/30 18:44:45;;;;;;;136.85;42.30;;;;;;;4.96;98.57;100383.97;4461814;32;34801;-80
2021/12/30 18:47:31;;;;;;;122.37;41.28;;;;;;;3.12;100.00;100400.28;4460519;32;34213;-80
2021/12/30 18:50:17;;;;;;;104.95;40.10;;;;;;;3.27;100.00;100412.47;4461903;32;35654;-80
2021/12/30 18:53:04;;;;;;;113.20;39.25;;;;;;;3.42;100.00;100403.81;4464235;32;35332;-80
2021/12/30 18:55:51;;;;;;;81.10;31.17;;;;;;;3.03;100.00;100404.47;4468040;32;33851;-80
2021/12/30 18:58:38;;;;;;;93.47;30.30;;;;;;;3.36;100.00;100408.31;4460508;32;35285;-80
2021/12/30 19:01:25;;;;;;;84.35;27.83;;;;;;;3.30;100.00;100414.69;4464936;32;35985;-81
2021/12/30 19:04:12;;;;;;;78.50;27.70;;;;;;;3.27;100.00;100407.03;4465838;32;33955;-80
2021/12/30 19:07:00;;;;;;;80.95;27.17;;;;;;;3.60;100.00;100398.12;4460792;32;34099;-81
2021/12/30 19:09:46;;;;;;;73.87;26.95;;;;;;;4.11;100.00;100398.09;4452948;32;34389;-82
2021/12/30 19:12:35;;;;;;;75.12;29.70;;;;;;;4.72;100.00;100404.31;4465634;32;36002;-81
2021/12/30 19:15:24;;;;;;;62.28;24.80;;;;;;;4.57;100.00;100398.69;4453997;32;34473;-81
2021/12/30 19:18:11;;;;;;;73.93;29.75;;;;;;;5.49;99.95;100397.75;4449817;32;34249;-81
2021/12/30 19:20:59;;;;;;;62.03;25.17;;;;;;;5.62;97.70;100393.81;4455686;32;35244;-81
2021/12/30 19:23:47;;;;;;;50.97;21.17;;;;;;;5.92;95.79;100395.09;4470211;32;34663;-82
2021/12/30 19:26:33;;;;;;;50.25;19.35;;;;;;;5.93;94.74;100400.31;4463322;31;34948;-81
2021/12/30 19:29:20;;;;;;;44.55;19.95;;;;;;;6.08;93.54;100399.59;4467051;32;35265;-81
2021/12/30 19:32:06;;;;;;;43.63;18.10;;;;;;;6.25;92.10;100394.81;4465292;32;35527;-81
2021/12/30 19:34:53;;;;;;;43.65;19.48;;;;;;;6.31;91.54;100391.03;4453770;32;34543;-81
2021/12/30 19:37:42;;;;;;;42.85;18.67;;;;;;;6.36;91.11;100400.31;4462651;32;34505;-82
2021/12/30 19:40:32;;;;;;;42.78;19.40;;;;;;;6.08;92.06;100383.28;4472194;32;35099;-81
2021/12/30 19:43:19;;;;;;;39.42;19.12;;;;;;;6.31;91.32;100382.03;4463110;32;33671;-82
2021/12/30 19:46:05;;;;;;;38.40;18.42;;;;;;;5.83;93.02;100382.00;4462333;32;34605;-82
2021/12/30 19:48:51;;;;;;;41.37;19.55;;;;;;;6.11;92.96;100377.31;4467713;32;34149;-81
2021/12/30 19:51:40;;;;;;;54.47;23.02;;;;;;;5.64;94.93;100380.78;4468564;32;34712;-81
2021/12/30 19:54:26;;;;;;;40.75;20.90;;;;;;;5.52;95.92;100378.25;4473144;32;35223;-81
2021/12/30 19:57:14;;;;;;;43.00;19.87;;;;;;;6.35;92.32;100398.66;4454002;32;35598;-81
2021/12/30 20:00:02;;;;;;;35.35;18.17;;;;;;;6.56;90.73;100400.41;4466525;32;34582;-82
2021/12/30 20:02:54;;;;;;;40.12;20.67;;;;;;;6.53;90.16;100395.50;4469652;32;35085;-81
2021/12/30 20:05:41;;;;;;;34.28;17.62;;;;;;;6.13;92.05;100388.75;4467119;32;34558;-81
2021/12/30 20:08:27;;;;;;;37.50;18.60;;;;;;;6.58;90.99;100394.72;4454807;32;34559;-81
2021/12/30 20:11:14;;;;;;;40.35;19.10;;;;;;;5.72;96.13;100391.19;4471675;32;34547;-81
2021/12/30 20:14:08;;;;;;;32.03;17.12;;;;;;;6.52;92.13;100393.88;4478592;32;34172;-82
2021/12/30 20:16:54;;;;;;;34.10;16.92;;;;;;;6.79;90.22;100395.59;4470164;32;34285;-82
2021/12/30 20:19:41;;;;;;;33.03;17.02;;;;;;;6.94;88.87;100384.72;4467052;32;35148;-82
2021/12/30 20:22:27;;;;;;;35.00;17.70;;;;;;;6.78;89.06;100377.62;4454311;32;35320;-82
2021/12/30 20:25:17;;;;;;;29.65;15.65;;;;;;;6.69;89.71;100383.59;4453450;32;35003;-82
2021/12/30 20:28:04;;;;;;;28.23;15.65;;;;;;;6.76;89.55;100377.88;4466684;32;35629;-82
2021/12/30 20:30:51;;;;;;;29.27;15.00;;;;;;;6.90;89.64;100383.63;4462484;32;34933;-82
2021/12/30 20:33:44;;;;;;;34.35;16.70;;;;;;;7.26;88.14;100380.97;4463566;32;33210;-81
2021/12/30 20:36:31;;;;;;;29.80;15.93;;;;;;;6.65;90.78;100376.19;4451058;32;34306;-82
2021/12/30 20:39:18;;;;;;;31.45;18.70;;;;;;;7.14;88.75;100382.06;4465114;32;35107;-82
2021/12/30 20:42:05;;;;;;;37.17;19.37;;;;;;;7.27;87.01;100377.19;4464149;32;35006;-82
2021/12/30 20:44:51;;;;;;;42.83;21.00;;;;;;;7.12;87.62;100369.81;4474777;32;35480;-82
2021/12/30 20:47:44;;;;;;;48.55;26.20;;;;;;;6.98;88.42;100366.78;4453887;32;33838;-82
2021/12/30 20:50:32;;;;;;;57.78;28.60;;;;;;;7.28;87.62;100367.91;4445915;32;34579;-82
2021/12/30 20:53:18;;;;;;;61.20;29.52;;;;;;;7.21;87.57;100369.00;4472568;32;35005;-80
2021/12/30 20:56:07;;;;;;;52.08;28.85;;;;;;;7.24;87.69;100361.38;4443003;32;34497;-82
2021/12/30 20:58:55;;;;;;;49.03;26.10;;;;;;;7.19;88.04;100364.88;4464443;32;35032;-82
2021/12/30 21:01:42;;;;;;;51.00;27.65;;;;;;;7.53;86.33;100353.47;4463039;32;34221;-82
2021/12/30 21:04:28;;;;;;;59.50;31.05;;;;;;;7.45;85.86;100363.00;4452602;32;34772;-81
2021/12/30 21:07:15;;;;;;;54.65;30.05;;;;;;;7.44;85.79;100364.09;4470870;32;34593;-82
2021/12/30 21:10:03;;;;;;;53.42;29.87;;;;;;;7.08;87.09;100350.44;4467051;32;33804;-81
2021/12/30 21:12:51;;;;;;;53.60;29.40;;;;;;;7.01;87.66;100358.06;4467498;32;34598;-82
2021/12/30 21:15:42;;;;;;;52.25;29.12;;;;;;;7.07;87.67;100356.97;4462951;32;34426;-82
2021/12/30 21:18:29;;;;;;;50.80;28.67;;;;;;;7.10;87.41;100350.97;4467582;32;35385;-82
2021/12/30 21:21:16;;;;;;;62.22;33.17;;;;;;;7.07;87.91;100350.72;4465774;32;34171;-82
2021/12/30 21:24:03;;;;;;;62.35;33.25;;;;;;;6.83;88.96;100356.66;4462982;32;35498;-82
2021/12/30 21:26:50;;;;;;;57.03;30.05;;;;;;;6.95;89.10;100356.41;4463743;32;35592;-82
2021/12/30 21:29:39;;;;;;;62.35;31.20;;;;;;;7.09;88.89;100364.91;4463927;32;35076;-82
2021/12/30 21:32:27;;;;;;;61.83;32.17;;;;;;;6.98;88.96;100361.31;4467219;32;33928;-80
2021/12/30 21:35:13;;;;;;;63.95;34.78;;;;;;;6.86;89.22;100366.19;4467841;32;34766;-81
2021/12/30 21:38:00;;;;;;;64.78;35.35;;;;;;;6.94;89.43;100357.47;4454109;32;35084;-82
2021/12/30 21:40:51;;;;;;;78.03;43.10;;;;;;;7.03;89.25;100355.87;4467217;32;34633;-82
2021/12/30 21:43:38;;;;;;;66.60;36.73;;;;;;;6.32;93.19;100367.38;4466350;32;34727;-82
2021/12/30 21:46:25;;;;;;;70.07;37.63;;;;;;;6.66;92.00;100367.78;4464532;32;34502;-82
2021/12/30 21:49:11;;;;;;;60.08;32.22;;;;;;;6.59;92.64;100364.47;4465758;32;36349;-82
2021/12/30 21:52:00;;;;;;;60.15;33.35;;;;;;;6.21;95.94;100371.94;4467473;32;35148;-82
2021/12/30 21:54:49;;;;;;;58.72;31.73;;;;;;;6.90;92.55;100367.28;4464327;32;35191;-83
2021/12/30 21:57:36;;;;;;;61.08;32.67;;;;;;;6.85;92.40;100364.56;4471194;32;35169;-82
